Martinsburg, Missouri
Current Conditions -  °F | °C
As of 2:54 AM on Thursday 23 Oct 2014 (Local Time) from KCOU Reporting Station
Clear Clear  
Wind Chill:   Ceiling: Unl
Heat Index:   Visibility: 10mi
Dew Point:   Wind: 8mph
Humidity: 83%   Direction: 150°SSE
Pressure: 30.17"   Gusts: NA
Location:  39.1°N, 91.65°W
Report Text: KCOU 230754Z AUTO 15007KT 10SM CLR 08/05 A3017 RMK AO2 SLP217 T00780050
Loading
Personal Weather Stations






























Interactive Weather Map
Tropical Storm Tracking
New forecast layout! Learn more

10-Day Weather Forecast

Advertisements
Track Severe Weather on mobile